Bedford, Michigan
Current Conditions -  °F | °C
As of 4:53 AM on Thursday 23 Oct 2014 (Local Time) from KBTL Reporting Station
Moderate Fog Moderate Fog  
Wind Chill: 32°   Ceiling: 100
Heat Index: 32°   Visibility: 0.25mi
Dew Point: 29°   Wind: 0mph
Humidity: 88%   Direction: NA
Pressure: 30.26"   Gusts: NA
Location:  42.4°N, 85.23°W
Report Text: KBTL 230853Z 00000KT 1/4SM FG VV001 00/M02 A3026 RMK AO2 SLP254 I1001 I3001 T00001017 58008
Loading
Personal Weather Stations






























Interactive Weather Map
Tropical Storm Tracking
New forecast layout! Learn more

10-Day Weather Forecast

Advertisements
Track Severe Weather on mobile